Terminal Aerodrome Forecast
Issued by NWS

Home | Current Version | Previous Version | Text Only | Print | Product List | Glossary On
Versions: 1 2 3 4 5 6 7 8 9 10 11 12 13
000
FTUS45 KTFX 230520
TAFHLN
TAF
KHLN 230520Z 2306/2406 VRB06KT P6SM SCT070 BKN150
     FM231100 28006KT P6SM BKN050
     FM231600 28006KT P6SM SCT060 BKN120
     FM232100 28006KT P6SM -SHRA SCT060 BKN090 PROB30 2321/2402
      -TSRA BKN045CB
     FM240300 34006KT P6SM OVC050=

USA.gov is the U.S. government's official web portal to all federal, state and local government web resources and services.